Date,TemperatureHighF,TemperatureAvgF,TemperatureLowF,DewpointHighF,DewpointAvgF,DewpointLowF,HumidityHigh,HumidityAvg,HumidityLow,PressureMaxIn,PressureMinIn,WindSpeedMaxMPH,WindSpeedAvgMPH,GustSpeedMaxMPH,PrecipitationSumIn
2012-1-1,64.2,56.3,44.5,59.0,36.2,28.0,97,50,26,30.57,30.10,21,10,29,0.00
2012-1-2,60.6,49.1,35.4,31.0,27.6,23.0,70,45,27,30.74,30.56,15,5,20,0.00
2012-1-3,62.4,48.2,32.5,44.0,29.1,22.0,82,53,22,30.63,30.30,8,3,13,0.00
2012-1-4,73.4,55.7,39.7,51.0,44.2,38.0,96,69,40,30.30,30.19,10,3,16,0.00
2012-1-5,67.5,58.4,52.0,53.0,45.1,38.0,85,62,49,30.33,30.11,11,3,14,0.00
2012-1-6,74.3,61.1,49.5,59.0,53.9,48.0,95,79,52,30.10,29.90,13,4,20,0.00
2012-1-7,70.0,60.3,54.0,59.0,53.3,48.0,97,80,53,30.05,29.92,11,3,12,0.00
2012-1-8,66.7,58.3,51.0,61.0,53.1,44.0,92,83,70,30.03,29.90,12,6,16,0.01
2012-1-9,63.3,54.5,46.9,61.0,51.4,40.0,94,89,78,30.08,29.89,18,7,24,0.02
2012-1-10,65.0,51.3,39.8,42.0,37.6,32.0,88,63,32,30.09,29.91,13,4,20,0.00
2012-1-11,76.5,60.1,42.4,40.0,36.8,34.0,74,46,22,29.91,29.70,15,6,22,0.00
2012-1-12,54.1,45.9,41.0,39.0,20.3,7.0,63,39,19,30.32,29.91,26,8,31,0.00
2012-1-13,58.1,45.0,30.2,27.0,18.3,14.0,67,37,19,30.37,30.27,8,2,11,0.00
2012-1-14,64.5,48.6,35.5,36.0,28.9,23.0,75,50,25,30.45,30.31,9,3,13,0.00
2012-1-15,66.4,55.5,38.2,60.0,46.6,32.0,91,73,45,30.35,30.17,9,4,15,0.00
2012-1-16,79.0,68.4,62.8,65.0,62.7,60.0,95,83,58,30.18,29.93,18,6,24,0.00
2012-1-17,77.6,66.2,48.1,67.0,53.5,31.0,96,68,33,30.23,29.93,18,8,22,0.00
2012-1-18,65.0,50.3,38.5,42.0,33.0,26.0,69,53,38,30.32,30.08,19,6,24,0.00
2012-1-19,76.7,62.4,50.0,62.0,52.5,40.0,91,71,53,30.07,29.86,13,5,16,0.00
2012-1-20,78.0,66.5,60.6,66.0,62.5,59.0,97,88,65,29.89,29.77,9,3,15,0.00
2012-1-21,62.4,56.2,49.5,61.0,48.2,41.0,98,76,56,30.02,29.84,15,5,19,0.01
2012-1-22,75.9,61.8,53.1,67.0,57.5,47.0,97,86,63,29.93,29.76,11,2,11,0.00
2012-1-23,65.8,55.9,47.7,48.0,42.4,39.0,77,62,44,30.13,29.93,15,5,19,0.00
2012-1-24,71.6,61.2,52.2,68.0,56.1,43.0,97,83,68,30.00,29.76,13,5,21,0.13
2012-1-25,70.8,60.1,47.6,68.0,55.2,44.0,95,84,72,29.98,29.64,16,5,28,0.71
2012-1-26,70.1,54.7,44.3,48.0,44.4,41.0,93,71,39,30.09,29.97,12,3,16,0.00
2012-1-27,75.8,58.8,42.0,51.0,43.9,39.0,90,62,30,30.09,29.93,13,4,20,0.00
2012-1-28,59.2,53.2,44.3,51.0,35.5,29.0,91,53,32,30.43,30.07,21,11,27,0.00
2012-1-29,63.5,49.9,37.0,44.0,34.3,30.0,77,58,34,30.50,30.33,10,3,12,0.01
2012-1-30,64.7,55.4,44.5,61.0,52.3,42.0,96,89,76,30.34,30.13,8,2,12,0.28
2012-1-31,72.1,64.4,60.8,65.0,61.9,59.0,98,92,76,30.14,30.02,5,2,10,0.05
2012-2-1,76.2,68.1,61.2,67.0,64.7,60.0,98,89,72,30.11,30.00,5,1,10,0.00
2012-2-2,75.3,67.6,60.4,69.0,65.0,59.0,98,92,71,30.07,29.89,12,4,16,0.02
2012-2-3,78.3,71.6,67.0,69.0,67.3,66.0,96,87,70,29.96,29.84,12,4,14,0.00
2012-2-4,70.7,58.4,51.3,69.0,50.9,42.0,95,77,57,30.23,29.93,20,10,29,0.45
2012-2-5,52.2,46.8,43.2,43.0,40.5,38.0,87,79,65,30.38,30.21,18,9,24,0.16
2012-2-6,49.1,46.1,42.9,44.0,39.7,37.0,88,78,71,30.38,30.19,11,5,14,0.00
2012-2-7,60.3,52.2,41.8,50.0,45.1,40.0,94,78,57,30.32,30.17,10,2,13,0.00
2012-2-8,56.4,50.4,44.4,47.0,43.5,39.0,86,77,68,30.47,30.30,15,8,19,0.00
2012-2-9,57.2,48.7,40.4,48.0,43.1,39.0,93,82,64,30.34,30.12,9,4,10,0.00
2012-2-10,62.9,54.0,48.3,53.0,46.7,39.0,97,78,42,30.28,30.08,15,3,19,0.28
2012-2-11,50.6,45.0,38.9,40.0,30.9,22.0,87,60,42,30.52,30.27,20,11,24,0.00
2012-2-12,44.2,38.6,31.6,40.0,28.5,23.0,94,67,51,30.54,30.16,18,9,20,0.01
2012-2-13,63.3,50.0,41.4,54.0,47.1,40.0,97,90,70,30.15,29.86,11,4,14,0.47
2012-2-14,68.2,57.6,43.2,63.0,54.6,42.0,98,90,72,29.97,29.85,9,2,15,0.01
2012-2-15,80.3,68.5,59.9,70.0,61.0,51.0,98,80,42,30.02,29.86,8,2,12,0.04
2012-2-16,61.8,57.5,53.9,51.0,47.2,41.0,83,69,55,30.17,30.02,15,8,20,0.00
2012-2-17,58.4,54.6,51.8,58.0,53.3,50.0,98,95,84,30.06,29.81,15,8,18,0.21
2012-2-18,62.4,56.9,49.9,59.0,53.7,46.0,98,90,70,30.08,29.75,13,5,23,0.75
2012-2-19,62.4,52.6,44.3,49.0,46.6,42.0,95,81,61,30.16,30.02,13,3,17,0.01
2012-2-20,69.7,57.8,48.0,60.0,54.1,47.0,96,88,69,30.11,29.99,8,3,11,0.00
2012-2-21,74.6,64.6,55.5,64.0,59.6,54.0,98,85,61,30.17,29.98,7,3,14,0.01
2012-2-22,80.7,70.6,64.4,67.0,61.9,52.0,96,76,50,29.97,29.69,13,6,17,0.00
2012-2-23,84.6,72.3,61.9,69.0,64.2,59.0,93,77,49,29.69,29.55,9,3,18,0.00
2012-2-24,70.9,56.8,45.4,67.0,32.5,23.0,93,42,27,30.39,29.65,25,11,38,0.00
2012-2-25,54.9,48.7,43.4,40.0,34.4,27.0,71,59,36,30.45,30.25,9,3,12,0.00
2012-2-26,64.2,53.8,35.6,56.0,45.8,33.0,91,75,63,30.25,30.04,11,3,17,0.00
2012-2-27,66.8,63.2,59.5,64.0,61.0,55.0,97,92,84,30.19,30.09,13,6,16,0.07
2012-2-28,79.7,69.2,62.0,70.0,65.9,61.0,98,90,70,30.11,29.88,16,6,20,0.01
2012-2-29,76.0,69.8,65.1,69.0,65.1,55.0,97,85,70,30.00,29.90,11,4,13,0.00
2012-3-1,77.4,68.7,63.2,70.0,65.6,57.0,96,89,75,29.94,29.68,8,2,13,0.00
2012-3-2,81.4,71.8,62.7,72.0,64.1,46.0,96,78,49,29.74,29.62,15,6,21,0.00
2012-3-3,66.1,58.3,49.7,46.0,34.5,22.0,76,43,20,30.21,29.74,22,9,31,0.01
2012-3-4,74.2,58.9,37.9,41.0,34.6,27.0,84,46,18,30.29,30.13,13,4,18,0.01
2012-3-5,76.2,61.8,46.0,53.0,45.4,37.0,85,58,28,30.35,30.20,13,5,22,0.00
2012-3-6,75.1,64.1,53.2,61.0,55.7,51.0,93,76,52,30.24,29.99,19,7,26,0.00
2012-3-7,75.4,69.4,64.0,67.0,64.6,61.0,91,85,74,30.02,29.84,17,8,24,0.00
2012-3-8,79.1,69.7,50.6,71.0,64.0,45.0,88,82,72,30.16,29.85,18,9,28,0.00
2012-3-9,50.6,45.7,43.8,46.0,43.4,41.0,96,91,83,30.33,30.14,21,8,27,0.11
2012-3-10,52.9,48.7,43.6,52.0,47.9,43.0,97,97,95,30.30,30.04,12,5,14,0.27
2012-3-11,73.8,60.2,51.9,60.0,54.8,51.0,98,84,53,30.08,29.95,12,4,13,0.15
2012-3-12,77.5,65.4,54.5,69.0,61.7,54.0,97,88,69,30.11,29.99,8,3,13,0.01
2012-3-13,81.9,72.0,65.4,71.0,67.0,64.0,97,85,66,30.10,29.97,13,5,20,0.00
2012-3-14,80.8,72.7,67.6,70.0,67.6,65.0,95,84,67,30.08,29.99,13,6,19,0.00
2012-3-15,81.4,73.1,67.5,70.0,67.6,66.0,96,84,65,30.13,30.00,14,6,20,0.00
2012-3-16,79.3,72.3,68.8,71.0,68.1,66.0,96,87,72,30.10,29.94,13,6,20,0.00
2012-3-17,78.6,72.1,67.0,69.0,66.8,65.0,95,84,68,30.03,29.89,13,5,21,0.03
2012-3-18,77.4,71.7,67.9,70.0,67.9,66.0,95,88,76,29.99,29.82,16,6,22,0.01
2012-3-19,80.1,73.9,69.7,71.0,68.7,66.0,92,84,69,29.84,29.52,20,10,29,0.00
2012-3-20,74.6,61.2,54.2,69.0,52.5,43.0,97,75,39,29.85,29.54,18,5,28,2.27
2012-3-21,73.0,62.5,51.6,52.0,42.5,37.0,83,51,29,29.93,29.83,13,4,22,0.00
2012-3-22,82.7,68.0,52.6,55.0,49.9,43.0,88,57,25,29.96,29.82,12,5,18,0.00
2012-3-23,83.5,66.7,48.9,64.0,55.0,45.0,92,68,36,30.05,29.90,8,3,13,0.00
2012-3-24,81.2,69.2,58.4,69.0,64.0,57.0,97,85,57,30.04,29.93,8,2,9,0.01
2012-3-25,82.9,70.3,61.5,66.0,62.8,60.0,97,79,47,30.07,29.94,8,2,9,0.00
2012-3-26,81.4,70.6,62.4,66.0,61.2,57.0,96,75,47,30.06,29.91,11,3,17,0.00
2012-3-27,80.2,68.6,58.6,69.0,63.8,57.0,97,85,63,30.03,29.93,12,4,14,0.00
2012-3-28,78.2,69.3,64.6,69.0,65.9,63.0,96,89,72,30.00,29.88,14,3,17,0.14
2012-3-29,83.5,72.0,65.4,71.0,67.5,64.0,98,87,63,29.92,29.75,7,2,11,0.06
2012-3-30,85.3,74.4,66.6,69.0,67.2,65.0,98,80,52,29.86,29.74,11,3,13,0.00
2012-3-31,89.9,76.2,65.3,72.0,68.1,64.0,97,78,44,29.86,29.74,12,4,14,0.00
2012-4-1,86.4,76.8,66.6,72.0,69.3,66.0,97,79,58,29.80,29.65,9,4,17,0.00
2012-4-2,85.8,74.6,60.8,74.0,67.3,59.0,93,79,59,29.70,29.51,14,6,18,0.01
2012-4-3,87.2,77.2,69.5,72.0,69.7,57.0,93,78,59,29.80,29.60,8,3,13,0.00
2012-4-4,84.9,68.8,53.2,59.0,53.8,43.0,93,63,25,29.87,29.71,9,2,11,0.00
2012-4-5,91.9,75.5,59.7,71.0,64.4,55.0,97,72,33,29.85,29.72,9,3,11,0.00
2012-4-6,83.0,72.2,62.7,69.0,65.0,59.0,95,79,61,30.00,29.85,10,4,15,0.00
2012-4-7,83.3,73.9,67.0,70.0,67.1,63.0,97,81,59,30.16,29.97,7,4,13,0.00
2012-4-8,81.3,69.8,59.6,68.0,61.9,59.0,97,78,48,30.23,30.11,9,2,12,0.00
2012-4-9,82.4,70.1,57.3,66.0,61.3,56.0,97,76,50,30.16,30.03,6,2,10,0.00
2012-4-10,82.7,70.8,58.4,65.0,61.3,57.0,96,74,50,30.11,29.98,9,2,17,0.00
2012-4-11,85.4,72.5,58.6,68.0,64.2,58.0,97,77,50,30.09,29.91,14,4,19,0.00
2012-4-12,83.0,73.9,69.6,70.0,67.8,67.0,92,82,62,30.01,29.86,13,5,24,0.00
2012-4-13,83.2,74.8,67.2,72.0,69.1,66.0,96,83,65,29.94,29.80,12,6,19,0.00
2012-4-14,83.1,76.5,72.5,72.0,70.7,69.0,92,82,68,29.87,29.68,16,8,24,0.00
2012-4-15,85.3,75.4,64.0,73.0,63.5,51.0,88,68,41,29.89,29.65,15,8,21,0.00
2012-4-16,69.9,64.3,57.9,59.0,54.3,45.0,87,71,43,30.11,29.89,14,6,18,0.03
2012-4-17,82.8,68.6,55.8,61.0,53.5,46.0,96,64,28,30.20,30.07,12,4,14,0.00
2012-4-18,84.3,70.9,59.7,64.0,58.4,48.0,97,68,37,30.17,29.96,9,2,15,0.00
2012-4-19,87.5,70.7,49.9,64.0,57.0,48.0,94,65,37,29.99,29.74,14,4,16,0.00
2012-4-20,76.7,68.1,61.2,67.0,60.4,49.0,95,78,51,29.99,29.70,17,4,22,0.01
2012-4-21,80.7,65.3,51.5,49.0,45.6,42.0,79,53,26,30.06,29.94,13,5,19,0.00
2012-4-22,91.1,69.6,48.5,53.0,48.1,44.0,87,52,22,30.12,29.98,5,1,10,0.00
2012-4-23,80.6,67.7,58.3,54.0,49.3,43.0,77,54,30,30.21,30.02,18,4,19,0.00
2012-4-24,88.3,71.9,51.5,63.0,56.9,50.0,94,63,35,30.06,29.87,12,4,17,0.02
2012-4-25,94.0,78.3,65.9,72.0,66.4,63.0,91,70,37,29.92,29.77,15,5,16,0.00
2012-4-26,94.8,78.2,65.3,72.0,66.6,61.0,94,71,32,29.86,29.74,13,5,17,0.00
2012-4-27,93.0,77.5,65.3,70.0,65.7,60.0,95,70,34,29.83,29.70,13,6,19,0.00
2012-4-28,89.2,77.7,68.8,70.0,66.9,64.0,92,71,45,29.85,29.75,15,7,24,0.00
2012-4-29,87.2,77.9,71.9,71.0,68.2,64.0,90,74,49,29.91,29.79,13,6,20,0.00
2012-4-30,89.6,78.6,73.3,72.0,69.9,67.0,93,76,48,29.96,29.83,16,5,20,0.00
2012-5-1,90.1,78.0,70.5,73.0,69.3,67.0,95,77,48,29.94,29.76,10,4,17,0.00
2012-5-2,91.5,79.2,71.3,71.0,69.1,67.0,93,74,46,29.89,29.76,8,4,16,0.00
2012-5-3,93.5,81.4,72.7,72.0,70.5,70.0,92,72,46,29.94,29.77,11,5,16,0.00
2012-5-4,97.2,82.4,72.4,73.0,69.8,64.0,94,69,35,29.96,29.79,13,4,17,0.00
2012-5-5,96.8,82.0,73.3,75.0,73.1,71.0,93,76,48,29.91,29.72,11,5,18,0.00
2012-5-6,93.0,78.3,65.7,73.0,68.9,64.0,97,75,47,29.93,29.75,17,5,25,1.36
2012-5-7,91.9,79.9,67.0,74.0,71.6,64.0,94,77,55,30.00,29.70,17,4,24,0.74
2012-5-8,71.2,68.1,66.6,67.0,65.7,65.0,95,92,86,29.99,29.79,18,6,22,0.49
2012-5-9,80.8,71.5,63.8,67.0,64.7,62.0,96,80,55,30.02,29.88,10,4,14,0.08
2012-5-10,74.8,69.5,66.2,70.0,67.4,65.0,96,92,83,29.89,29.69,21,5,29,1.73
2012-5-11,84.0,71.2,62.0,69.0,65.4,61.0,97,83,54,29.92,29.72,8,3,13,0.01
2012-5-12,81.5,72.3,64.2,67.0,64.0,59.0,97,77,49,30.11,29.93,12,4,17,0.00
2012-5-13,81.7,71.7,62.5,64.0,62.0,60.0,92,73,51,30.17,30.03,14,4,16,0.00
2012-5-14,84.2,72.8,61.8,67.0,62.8,60.0,95,73,47,30.09,29.91,12,2,17,0.01
2012-5-15,73.3,67.0,62.1,65.0,63.5,60.0,96,89,72,30.07,29.92,11,4,14,0.42
2012-5-16,82.7,70.8,58.4,65.0,60.8,58.0,97,74,45,30.09,29.95,10,2,13,0.00
2012-5-17,87.4,75.4,62.5,66.0,62.5,59.0,94,67,39,30.02,29.88,7,2,12,0.00
2012-5-18,87.4,75.6,61.1,69.0,64.7,60.0,96,71,45,29.94,29.80,10,4,16,0.00
2012-5-19,88.5,77.6,68.1,71.0,67.5,64.0,95,74,45,29.94,29.84,10,4,16,0.00
2012-5-20,86.7,77.1,68.3,72.0,66.8,61.0,96,73,44,30.07,29.93,8,3,12,0.00
2012-5-21,88.8,76.9,62.9,71.0,66.3,62.0,97,72,47,30.12,30.00,7,2,10,0.00
2012-5-22,91.1,77.0,66.2,70.0,63.6,58.0,90,66,33,30.02,29.79,10,3,15,0.00
2012-5-23,91.5,79.4,70.8,74.0,70.6,62.0,92,76,52,29.81,29.58,10,6,18,0.00
2012-5-24,92.5,81.1,73.7,75.0,72.3,70.0,89,76,53,29.72,29.59,13,6,19,0.00
2012-5-25,92.7,82.0,74.2,74.0,72.6,71.0,91,74,50,29.91,29.71,16,7,20,0.00
2012-5-26,91.0,81.5,73.5,76.0,71.9,68.0,94,74,49,29.98,29.85,19,5,19,0.00
2012-5-27,91.5,80.7,73.1,72.0,69.9,66.0,93,72,47,29.93,29.80,11,5,17,0.00
2012-5-28,93.4,82.2,73.5,73.0,71.0,69.0,93,71,46,29.89,29.76,9,4,14,0.00
2012-5-29,95.3,83.5,74.0,74.0,72.2,70.0,93,71,45,29.89,29.76,14,4,16,0.00
2012-5-30,93.9,82.4,74.3,74.0,72.3,70.0,94,73,47,29.86,29.68,11,4,16,0.00
2012-5-31,89.5,79.9,72.0,74.0,69.4,61.0,94,72,40,29.87,29.66,20,5,29,0.00
2012-6-1,94.5,79.8,66.6,72.0,66.6,63.0,91,66,39,29.99,29.79,14,4,17,0.00
2012-6-2,92.4,81.9,71.4,73.0,70.9,68.0,95,72,47,29.93,29.77,10,5,17,0.00
2012-6-3,88.8,80.6,72.1,75.0,72.0,68.0,96,77,57,29.91,29.78,15,4,17,0.00
2012-6-4,95.9,83.0,73.3,76.0,72.3,69.0,95,73,42,29.88,29.70,12,4,18,0.00
2012-6-5,96.2,82.9,71.1,76.0,71.6,67.0,97,72,38,29.81,29.67,8,2,11,0.00
2012-6-6,97.4,84.9,70.0,74.0,69.7,66.0,94,64,37,29.79,29.68,8,2,11,0.00
2012-6-7,89.7,80.2,72.6,75.0,70.3,63.0,95,74,48,29.91,29.78,10,3,16,0.03
2012-6-8,86.1,77.3,69.8,72.0,69.3,67.0,93,77,57,29.91,29.78,13,4,13,0.00
2012-6-9,94.8,80.3,64.8,73.0,67.9,63.0,95,69,40,29.85,29.66,9,2,13,0.00
2012-6-10,101.2,85.9,72.6,77.0,73.3,68.0,94,69,40,29.78,29.66,16,4,16,0.00
2012-6-11,101.3,87.0,77.1,76.0,74.6,70.0,90,70,38,29.90,29.77,12,5,18,0.00
2012-6-12,98.2,85.8,73.7,78.0,74.0,69.0,94,70,42,29.98,29.86,23,5,23,0.00
2012-6-13,99.2,85.5,73.3,76.0,72.1,68.0,95,68,36,30.00,29.77,12,4,20,0.00
2012-6-14,97.1,85.2,76.9,75.0,72.6,70.0,89,68,43,29.88,29.77,13,6,18,0.00
2012-6-15,97.4,85.0,75.1,75.0,71.9,68.0,93,68,39,29.93,29.81,12,5,16,0.00
2012-6-16,97.7,84.2,71.5,76.0,71.9,67.0,96,70,37,30.00,29.85,16,4,19,0.00
2012-6-17,95.3,83.1,69.8,74.0,70.1,66.0,96,68,42,29.99,29.79,11,2,17,0.00
2012-6-18,93.5,83.2,73.9,73.0,69.1,66.0,83,64,41,29.90,29.69,12,4,17,0.00
2012-6-19,93.3,82.8,73.7,75.0,72.8,70.0,95,73,49,29.84,29.76,15,6,23,0.00
2012-6-20,91.2,81.4,75.5,76.0,73.3,70.0,94,77,53,29.91,29.82,16,6,22,0.00
2012-6-21,93.2,82.6,71.8,75.0,71.0,66.0,97,71,44,29.96,29.86,15,4,16,0.00
2012-6-22,94.0,82.4,67.2,72.0,66.2,62.0,95,62,35,29.94,29.80,12,3,16,0.00
2012-6-23,97.1,85.6,69.5,71.0,66.8,63.0,86,56,36,29.88,29.79,10,3,15,0.00
2012-6-24,100.7,86.6,69.5,74.0,69.9,67.0,93,60,37,29.93,29.80,7,2,13,0.01
2012-6-25,102.6,89.4,73.7,72.0,67.4,62.0,85,51,27,29.89,29.73,12,3,15,0.00
2012-6-26,104.8,90.4,72.0,71.0,67.0,62.0,81,49,29,29.79,29.65,13,3,21,0.00
2012-6-27,103.1,89.8,74.8,71.0,67.1,64.0,75,50,30,29.89,29.73,9,2,13,0.00
2012-6-28,99.5,86.8,73.3,77.0,69.7,63.0,95,61,32,29.99,29.88,11,4,16,0.00
2012-6-29,94.9,81.6,72.9,77.0,73.9,71.0,95,78,51,29.98,29.81,13,4,27,0.20
2012-6-30,89.7,80.3,73.7,77.0,73.9,71.0,97,81,60,29.88,29.78,15,5,19,0.00
2012-7-1,92.5,78.8,70.1,75.0,71.7,68.0,96,81,45,29.96,29.85,15,4,20,0.31
2012-7-2,95.8,84.2,75.5,78.0,72.3,63.0,97,72,34,30.03,29.90,14,5,21,0.00
2012-7-3,96.3,83.8,73.5,77.0,72.2,67.0,96,71,39,30.01,29.85,14,5,23,0.00
2012-7-4,98.0,85.1,75.5,76.0,72.6,64.0,95,70,33,29.98,29.84,13,5,19,0.00
2012-7-5,99.0,83.0,74.2,76.0,72.8,67.0,95,74,36,29.99,29.89,13,4,26,0.01
2012-7-6,98.5,85.4,74.3,77.0,70.9,63.0,97,67,31,30.02,29.87,11,3,15,0.00
2012-7-7,98.0,86.3,72.6,77.0,70.4,62.0,95,63,31,30.01,29.86,9,3,15,0.00
2012-7-8,98.4,84.7,73.7,75.0,71.3,62.0,94,67,34,30.00,29.85,12,4,18,0.00
2012-7-9,97.0,83.7,72.3,75.0,72.8,69.0,95,72,42,29.97,29.80,10,3,12,0.19
2012-7-10,89.5,78.3,71.1,78.0,73.7,70.0,97,86,61,29.92,29.81,8,2,12,0.18
2012-7-11,79.7,75.6,72.5,76.0,73.8,72.0,97,94,85,29.93,29.85,9,2,12,1.13
2012-7-12,92.6,81.7,73.3,76.0,73.7,72.0,98,79,54,29.94,29.83,7,2,10,0.00
2012-7-13,96.8,84.0,76.7,78.0,75.1,71.0,96,77,45,29.96,29.83,9,3,11,0.01
2012-7-14,94.9,83.8,74.6,78.0,74.0,70.0,97,75,46,29.97,29.84,8,2,15,0.00
2012-7-15,95.2,82.6,75.3,77.0,72.6,68.0,94,74,41,29.99,29.85,12,3,26,0.00
2012-7-16,94.9,83.5,74.3,77.0,72.6,66.0,96,72,40,29.96,29.84,11,4,16,0.00
2012-7-17,90.4,82.1,76.8,77.0,75.0,73.0,95,80,60,29.95,29.84,13,4,14,0.00
2012-7-18,91.9,79.5,73.3,78.0,74.9,70.0,96,86,57,29.99,29.91,11,2,12,0.05
2012-7-19,93.8,81.4,71.8,78.0,73.8,71.0,97,79,53,30.08,29.98,9,2,14,0.01
2012-7-20,98.1,85.4,74.2,76.0,73.0,68.0,97,70,40,30.06,29.91,8,3,11,0.00
2012-7-21,98.9,86.3,74.0,75.0,71.1,63.0,94,64,32,30.00,29.86,8,3,14,0.00
2012-7-22,97.5,84.9,72.7,76.0,71.6,63.0,96,68,32,30.00,29.89,13,4,15,0.00
2012-7-23,95.2,83.7,73.8,77.0,73.7,69.0,96,74,42,30.05,29.96,14,4,20,0.00
2012-7-24,98.3,85.5,75.1,77.0,72.9,68.0,96,70,37,30.05,29.87,13,4,18,0.00
2012-7-25,99.1,84.9,74.7,76.0,73.8,70.0,96,72,40,29.96,29.80,12,5,19,0.00
2012-7-26,97.8,85.6,76.2,76.0,73.0,68.0,90,68,38,29.91,29.78,18,7,19,0.00
2012-7-27,97.8,85.4,75.2,78.0,73.2,68.0,95,70,39,30.02,29.90,14,5,16,0.00
2012-7-28,98.8,85.7,73.1,77.0,72.4,68.0,97,68,38,30.09,29.95,9,3,12,0.00
2012-7-29,99.9,85.8,70.8,78.0,71.3,66.0,97,66,34,30.06,29.90,11,3,14,0.00
2012-7-30,100.4,87.0,72.9,74.0,70.0,66.0,93,61,32,30.00,29.85,13,3,18,0.00
2012-7-31,102.9,88.4,74.6,76.0,71.0,64.0,94,61,29,29.98,29.84,10,3,15,0.00
2012-8-1,102.3,87.6,74.6,75.0,69.5,63.0,92,60,28,29.95,29.81,10,3,15,0.00
2012-8-2,102.0,87.3,74.6,75.0,70.6,64.0,95,62,31,29.89,29.75,13,5,19,0.00
2012-8-3,100.7,86.2,71.1,76.0,70.4,65.0,95,63,33,29.87,29.76,14,4,18,0.00
2012-8-4,99.6,86.3,73.1,77.0,71.2,66.0,95,65,35,29.98,29.84,13,5,18,0.00
2012-8-5,96.1,80.8,72.3,77.0,72.9,69.0,96,79,41,30.07,29.98,14,3,19,0.03
2012-8-6,97.9,84.7,70.1,75.0,70.1,63.0,97,66,33,30.07,29.90,8,2,15,0.00
2012-8-7,98.8,86.8,71.9,75.0,71.0,66.0,92,62,35,29.95,29.83,10,3,15,0.00
2012-8-8,99.5,86.6,71.0,76.0,70.5,67.0,92,62,37,29.96,29.83,12,4,13,0.00
2012-8-9,101.3,87.1,72.0,76.0,70.9,67.0,94,62,33,29.96,29.81,10,3,19,0.00
2012-8-10,105.0,87.6,74.3,76.0,71.0,62.0,92,62,26,29.91,29.74,11,3,18,0.00
2012-8-11,103.4,87.7,72.2,73.0,68.5,64.0,85,57,29,29.91,29.79,9,2,14,0.00
2012-8-12,100.4,88.2,75.8,75.0,70.8,64.0,92,60,33,29.95,29.81,10,4,17,0.00
2012-8-13,100.9,87.7,77.3,76.0,71.7,62.0,92,63,30,30.00,29.84,10,4,19,0.00
2012-8-14,101.0,88.0,73.3,76.0,70.6,63.0,94,60,32,29.96,29.78,13,4,18,0.00
2012-8-15,101.4,88.3,76.2,75.0,69.3,60.0,85,58,26,29.90,29.76,16,7,21,0.00
2012-8-16,99.5,86.9,75.4,76.0,72.0,66.0,93,65,35,29.95,29.83,12,6,18,0.00
2012-8-17,101.1,87.7,75.2,77.0,72.2,65.0,95,64,33,29.98,29.79,12,4,17,0.00
2012-8-18,99.9,86.8,73.7,76.0,72.1,66.0,94,65,34,29.91,29.70,15,4,20,0.02
2012-8-19,87.1,77.4,70.8,75.0,70.6,-99.9,97,83,64,29.91,29.82,14,-8,15,1.02
2012-8-20,95.9,83.9,72.6,75.0,69.5,64.0,97,66,37,29.95,29.81,8,2,12,0.00
2012-8-21,95.6,82.8,71.5,71.0,67.2,63.0,91,63,35,29.96,29.88,10,4,15,0.00
2012-8-22,93.6,81.5,71.4,73.0,69.8,66.0,92,70,41,30.02,29.89,13,5,15,0.00
2012-8-23,95.6,83.5,71.7,75.0,70.3,64.0,95,68,39,29.98,29.83,8,3,16,0.00
2012-8-24,97.9,84.0,72.7,76.0,71.9,67.0,96,70,38,29.91,29.74,12,4,17,0.00
2012-8-25,97.5,84.4,75.9,76.0,73.2,69.0,92,71,40,29.88,29.76,17,6,23,0.00
2012-8-26,95.2,84.7,75.9,77.0,73.5,69.0,95,72,45,29.98,29.85,11,4,16,0.00
2012-8-27,97.0,84.5,72.0,76.0,68.6,61.0,96,63,31,30.01,29.86,11,2,12,0.00
2012-8-28,97.4,85.6,74.4,73.0,69.3,67.0,86,60,37,29.91,29.75,11,3,14,0.00
2012-8-29,99.2,88.2,77.7,72.0,66.6,57.0,80,52,25,29.80,29.66,20,6,24,0.00
2012-8-30,101.0,89.1,73.9,69.0,63.8,59.0,62,44,29,29.76,29.64,13,3,16,0.00
2012-8-31,101.6,87.5,79.1,75.0,72.0,66.0,87,63,33,29.94,29.76,13,4,24,0.04
2012-9-1,99.2,85.5,75.4,78.0,73.8,69.0,97,71,40,30.03,29.92,12,4,20,0.00
2012-9-2,99.7,86.8,75.5,76.0,70.8,59.0,95,64,26,30.02,29.85,13,4,19,0.00
2012-9-3,101.3,87.0,75.7,76.0,71.7,65.0,93,64,31,29.98,29.80,11,5,15,0.00
2012-9-4,101.7,87.0,75.1,76.0,71.3,61.0,95,64,27,29.94,29.77,9,4,18,0.00
2012-9-5,102.0,86.2,73.5,75.0,70.6,62.0,96,65,27,29.88,29.75,12,4,15,0.00
2012-9-6,100.9,86.2,71.4,76.0,70.0,62.0,96,64,29,29.92,29.79,14,3,15,0.00
2012-9-7,102.3,86.5,70.3,75.0,68.5,60.0,97,61,25,29.89,29.73,10,2,11,0.00
2012-9-8,91.8,82.1,69.8,73.0,64.0,51.0,88,57,32,30.02,29.79,20,6,24,0.00
2012-9-9,92.2,76.5,59.9,52.0,46.1,38.0,66,38,15,30.12,29.97,13,3,18,0.00
2012-9-10,94.4,78.3,58.4,63.0,53.3,43.0,77,47,17,30.09,29.93,11,2,16,0.00
2012-9-11,94.2,78.9,62.4,72.0,61.5,53.0,91,61,25,30.05,29.90,11,3,17,0.00
2012-9-12,98.6,82.7,74.5,76.0,72.3,68.0,93,74,38,29.99,29.84,20,4,30,0.00
2012-9-13,95.5,80.2,73.3,77.0,73.8,69.0,96,82,42,30.10,29.93,20,5,25,0.05
2012-9-14,75.5,71.5,68.6,71.0,67.9,66.0,97,88,79,30.17,30.07,13,6,24,2.29
2012-9-15,82.0,73.4,66.8,71.0,66.7,63.0,91,80,63,30.17,30.04,11,4,14,0.00
2012-9-16,74.6,69.2,66.2,71.0,67.3,65.0,98,93,82,30.06,29.92,10,4,14,1.00
2012-9-17,84.7,73.7,67.4,69.0,67.1,65.0,97,81,53,29.95,29.77,5,1,10,0.00
2012-9-18,87.2,75.4,65.4,71.0,66.5,63.0,97,76,47,30.03,29.85,11,2,17,0.00
2012-9-19,87.1,75.2,65.4,68.0,64.1,60.0,93,71,44,30.11,29.99,8,2,10,0.00
2012-9-20,88.4,76.4,64.8,71.0,65.8,59.0,98,72,43,30.07,29.94,6,1,11,0.00
2012-9-21,89.2,74.6,59.3,66.0,60.8,57.0,96,65,33,30.00,29.89,7,2,9,0.00
2012-9-22,89.6,76.4,61.0,71.0,64.4,60.0,96,69,42,30.08,29.96,7,1,10,0.00
2012-9-23,91.4,78.9,64.8,72.0,67.4,62.0,95,71,39,30.15,30.05,7,2,13,0.00
2012-9-24,92.7,79.4,67.6,74.0,69.3,65.0,98,74,41,30.12,29.94,11,3,14,0.00
2012-9-25,93.2,80.5,69.1,74.0,68.6,62.0,97,71,37,30.01,29.86,14,5,18,0.00
2012-9-26,91.5,80.2,69.3,73.0,69.3,64.0,96,72,44,30.01,29.88,12,4,14,0.00
2012-9-27,91.0,77.6,68.9,75.0,71.0,68.0,96,82,52,30.04,29.89,10,3,22,0.03
2012-9-28,84.5,75.9,72.1,76.0,73.2,71.0,97,92,72,30.00,29.86,13,4,13,1.61
2012-9-29,85.9,75.6,70.6,78.0,72.4,67.0,98,90,68,29.90,29.65,12,4,16,1.15
2012-9-30,80.3,73.3,67.6,67.0,65.3,64.0,87,76,61,29.86,29.75,13,5,21,0.00
2012-10-1,79.6,67.9,60.1,69.0,63.5,59.0,98,87,57,29.90,29.81,9,2,26,0.17
2012-10-2,81.1,69.8,62.2,63.0,57.5,49.0,95,69,34,29.98,29.88,10,3,15,0.01
2012-10-3,86.8,72.0,57.0,67.0,59.9,55.0,96,69,43,30.00,29.91,9,3,15,0.00
2012-10-4,91.8,79.0,70.4,75.0,71.6,66.0,97,80,51,30.06,29.97,11,5,19,0.00
2012-10-5,89.7,77.7,66.3,72.0,69.0,65.0,98,77,45,30.07,29.92,10,3,16,0.00
2012-10-6,78.3,70.6,59.9,71.0,64.9,55.0,97,83,68,30.07,29.93,18,7,21,0.00
2012-10-7,59.5,56.6,54.1,54.0,48.4,46.0,82,74,68,30.20,30.07,21,10,23,0.00
2012-10-8,69.2,59.5,52.6,55.0,49.1,42.0,76,69,59,30.25,30.08,11,5,15,0.00
2012-10-9,83.3,70.3,61.2,70.0,62.7,54.0,90,77,63,30.09,29.90,10,3,13,0.00
2012-10-10,88.9,78.6,71.4,75.0,72.1,69.0,95,82,56,30.07,29.95,8,3,14,0.00
2012-10-11,87.0,78.4,72.9,77.0,73.8,71.0,96,86,67,30.09,30.00,11,4,15,0.10
2012-10-12,86.8,77.9,71.6,75.0,71.9,69.0,98,83,60,30.13,30.00,10,4,15,0.00
2012-10-13,89.8,79.5,73.9,76.0,73.8,72.0,95,83,60,30.06,29.83,14,6,20,0.00
2012-10-14,87.8,78.3,72.1,75.0,72.1,64.0,95,82,63,30.05,29.90,10,2,17,0.00
2012-10-15,78.5,70.0,61.6,63.0,59.0,55.0,87,69,45,30.09,29.96,11,3,12,0.00
2012-10-16,76.5,69.1,64.1,71.0,63.7,55.0,94,83,70,29.97,29.76,11,2,12,0.00
2012-10-17,91.1,75.4,66.2,74.0,68.4,64.0,97,81,50,29.77,29.59,11,2,14,0.00
2012-10-18,79.8,71.8,58.9,68.0,54.3,48.0,85,56,37,29.96,29.71,20,8,24,0.00
2012-10-19,83.0,66.5,47.8,50.0,45.5,35.0,88,52,18,30.04,29.90,11,3,11,0.00
2012-10-20,89.1,74.8,59.2,74.0,65.2,49.0,90,73,53,29.92,29.76,11,4,15,0.00
2012-10-21,91.3,80.2,74.2,74.0,71.6,67.0,94,77,48,29.91,29.80,13,7,19,0.00
2012-10-22,90.4,79.3,73.7,75.0,72.2,69.0,95,80,50,29.93,29.84,13,6,20,0.00
2012-10-23,86.9,77.2,69.8,73.0,70.3,69.0,96,80,58,29.95,29.85,9,4,14,0.00
2012-10-24,87.7,76.2,66.2,71.0,67.0,62.0,97,76,46,29.96,29.81,10,3,17,0.00
2012-10-25,89.6,77.8,69.3,72.0,69.5,67.0,96,78,48,29.90,29.78,9,3,15,0.00
2012-10-26,74.9,58.6,49.2,72.0,49.6,41.0,95,72,61,30.23,29.92,18,11,25,0.90
2012-10-27,63.1,55.4,49.1,45.0,37.8,34.0,63,52,35,30.30,30.12,18,7,23,0.00
2012-10-28,66.5,56.4,47.7,41.0,36.5,32.0,70,49,28,30.28,30.15,11,4,17,0.00
2012-10-29,71.4,54.3,40.6,45.0,39.7,36.0,86,62,33,30.31,30.13,6,2,9,0.00
2012-10-30,78.6,60.5,43.6,59.0,50.8,41.0,91,72,45,30.13,29.96,8,2,12,0.00
2012-10-31,84.8,68.2,55.4,69.0,60.9,54.0,96,80,46,30.06,29.94,5,1,8,0.00
2012-11-1,84.3,71.8,62.8,71.0,65.6,62.0,98,82,52,30.07,29.93,6,1,11,0.00
2012-11-2,84.9,73.9,66.9,70.0,65.4,60.0,97,77,43,30.02,29.89,8,3,12,0.00
2012-11-3,87.0,72.9,63.7,72.0,64.9,60.0,98,79,40,30.05,29.93,11,3,13,0.00
2012-11-4,84.1,70.8,62.5,67.0,64.1,61.0,96,81,54,30.09,29.99,9,1,13,0.15
2012-11-5,85.5,72.9,63.4,68.0,64.5,57.0,97,77,48,30.06,29.91,8,2,13,0.10
2012-11-6,77.8,64.1,51.6,58.0,48.1,42.0,85,59,31,30.19,30.05,9,2,11,0.00
2012-11-7,82.1,67.1,51.6,60.0,53.5,47.0,88,64,39,30.19,30.03,5,1,10,0.00
2012-11-8,84.2,71.6,59.3,65.0,60.8,55.0,93,72,39,30.12,29.97,13,5,19,0.00
2012-11-9,84.2,71.7,59.8,67.0,62.7,59.0,97,76,45,30.06,29.92,14,5,21,0.00
2012-11-10,83.6,72.9,63.6,67.0,64.0,59.0,93,75,46,30.01,29.85,13,6,21,0.00
2012-11-11,83.3,74.3,67.1,67.0,61.0,39.0,93,66,36,30.14,29.82,14,6,24,0.00
2012-11-12,66.7,57.1,48.1,45.0,32.6,25.0,68,41,24,30.46,30.14,18,8,24,0.00
2012-11-13,55.2,50.4,45.1,40.0,31.8,24.0,67,50,32,30.49,30.33,14,5,15,0.00
2012-11-14,62.1,54.2,43.7,42.0,40.1,37.0,80,60,44,30.43,30.28,6,2,9,0.00
2012-11-15,62.5,54.4,42.4,45.0,40.8,37.0,86,63,40,30.32,30.22,6,2,7,0.00
2012-11-16,69.4,59.3,47.5,44.0,40.7,36.0,65,52,36,30.36,30.26,11,4,15,0.00
2012-11-17,70.3,53.6,37.9,47.0,37.2,33.0,82,57,28,30.39,30.26,9,1,10,0.00
2012-11-18,74.9,61.3,42.8,56.0,50.6,41.0,92,70,46,30.29,30.16,9,3,13,0.00
2012-11-19,72.2,62.8,54.6,59.0,55.9,52.0,92,79,62,30.25,30.13,5,1,10,0.00
2012-11-20,80.1,66.2,51.5,62.0,58.3,50.0,97,77,51,30.22,30.10,8,1,11,0.00
2012-11-21,78.7,65.7,53.4,63.0,56.5,52.0,97,75,42,30.25,30.14,6,1,11,0.00
2012-11-22,79.5,66.8,51.3,63.0,57.9,50.0,97,75,49,30.15,30.03,12,3,18,0.00
2012-11-23,73.8,65.0,57.0,65.0,54.4,34.0,97,71,38,30.36,30.10,15,5,21,0.00
2012-11-24,66.6,57.2,50.0,34.0,28.7,25.0,48,35,21,30.40,30.16,16,6,22,0.00
2012-11-25,74.6,61.7,46.8,61.0,50.9,33.0,93,69,45,30.16,29.93,11,3,15,0.00
2012-11-26,80.2,68.4,61.4,66.0,62.9,60.0,98,84,59,30.11,29.92,13,3,16,0.06
2012-11-27,64.1,54.7,44.0,59.0,44.6,40.0,88,70,53,30.37,30.10,17,7,19,0.07
2012-11-28,67.6,51.2,37.0,50.0,43.2,36.0,95,76,48,30.46,30.28,6,2,9,0.00
2012-11-29,71.7,59.4,41.3,62.0,52.9,40.0,97,80,60,30.29,30.12,7,2,14,0.00
2012-11-30,79.7,68.2,57.6,67.0,62.9,57.0,97,84,58,30.16,30.02,9,2,13,0.00
2012-12-1,82.2,73.5,69.2,69.0,67.2,64.0,94,81,57,30.11,29.99,13,5,15,0.00
2012-12-2,81.7,71.9,66.1,69.0,66.1,61.0,96,83,52,30.13,30.00,13,4,17,0.01
2012-12-3,81.3,71.5,65.7,67.0,64.8,61.0,96,81,55,30.04,29.93,9,4,13,0.00
2012-12-4,75.8,67.7,57.1,69.0,61.3,48.0,96,81,45,30.19,30.00,10,2,11,0.00
2012-12-5,74.4,58.5,44.8,49.0,40.9,35.0,75,55,25,30.26,30.05,11,2,13,0.00
2012-12-6,74.2,59.0,46.0,60.0,53.0,45.0,97,83,48,30.04,29.83,7,2,10,0.00
2012-12-7,79.0,69.7,61.3,67.0,64.1,60.0,97,83,59,29.88,29.75,8,3,13,0.00
2012-12-8,79.5,70.5,63.3,69.0,66.3,62.0,98,87,66,29.89,29.76,8,2,12,0.01
2012-12-9,79.7,71.3,57.7,70.0,66.7,50.0,95,86,69,29.89,29.74,21,4,23,0.22
2012-12-10,57.2,47.7,34.9,49.0,29.1,19.0,76,50,35,30.14,29.88,19,7,28,0.00
2012-12-11,54.9,41.2,29.3,28.0,25.1,23.0,81,56,31,30.25,30.12,8,2,12,0.00
2012-12-12,63.4,45.0,27.8,35.0,25.5,22.0,84,52,22,30.37,30.22,9,1,9,0.00
2012-12-13,64.8,51.4,33.4,51.0,40.2,28.0,84,67,47,30.31,30.17,12,3,14,0.00
2012-12-14,73.0,65.2,57.7,67.0,59.3,51.0,87,81,75,30.17,29.86,14,6,20,0.00
2012-12-15,74.4,68.2,61.4,68.0,60.2,52.0,97,77,46,29.94,29.82,9,4,13,0.01
2012-12-16,71.0,64.6,57.3,68.0,56.9,48.0,98,78,52,29.86,29.75,9,2,12,0.13
2012-12-17,75.0,61.2,51.7,51.0,39.2,31.0,80,49,21,30.00,29.86,11,3,13,0.00
2012-12-18,84.8,66.2,43.8,67.0,47.8,34.0,91,55,26,29.92,29.76,15,4,15,0.00
2012-12-19,83.3,73.8,66.6,69.0,66.9,63.0,96,80,56,29.84,29.62,14,6,25,0.00
2012-12-20,70.5,52.5,40.1,56.0,14.9,3.0,60,24,12,30.49,29.84,28,9,30,0.00
2012-12-21,61.7,47.2,31.9,28.0,14.9,7.0,67,32,12,30.55,30.38,5,1,9,0.00
2012-12-22,67.9,55.3,36.4,58.0,40.4,12.0,81,58,28,30.39,30.10,14,4,17,0.00
2012-12-23,67.1,62.8,57.9,60.0,57.9,55.0,95,84,73,30.09,29.88,10,3,13,0.00
2012-12-24,70.1,59.0,48.3,55.0,44.0,37.0,97,62,32,29.98,29.70,16,4,18,0.00
2012-12-25,71.7,59.7,36.6,65.0,41.0,22.0,92,56,19,30.14,29.57,21,9,29,0.00
2012-12-26,49.0,38.1,29.9,25.0,21.9,19.0,65,53,38,30.30,30.12,14,4,17,0.00
2012-12-27,47.2,39.5,28.4,45.0,33.4,22.0,96,79,65,30.13,29.83,10,4,12,0.00
2012-12-28,71.5,53.7,40.1,50.0,37.8,25.0,97,63,18,30.17,29.81,17,6,24,0.00
2012-12-29,50.2,41.9,33.9,29.0,24.2,22.0,66,51,36,30.49,30.17,16,2,22,0.00
2012-12-30,57.2,45.3,30.6,50.0,32.9,24.0,94,64,39,30.48,30.17,12,4,14,0.02
2012-12-31,64.9,57.3,50.7,64.0,56.5,49.0,98,97,94,30.17,29.89,8,3,10,0.12
2013-1-1,59.8,52.5,43.3,59.0,49.2,40.0,97,89,74,30.22,29.94,16,7,21,0.05